sensor_id;sensor_type;location;lat;lon;timestamp;temperature;humidity
67777;DHT22;54576;52.020;5.536;2023-04-20T00:00:15;7.90;46.50
67777;DHT22;54576;52.020;5.536;2023-04-20T00:02:42;7.90;46.60
67777;DHT22;54576;52.020;5.536;2023-04-20T00:05:09;7.90;46.70
67777;DHT22;54576;52.020;5.536;2023-04-20T00:07:35;7.90;46.80
67777;DHT22;54576;52.020;5.536;2023-04-20T00:10:01;7.80;46.90
67777;DHT22;54576;52.020;5.536;2023-04-20T00:12:27;7.80;47.10
67777;DHT22;54576;52.020;5.536;2023-04-20T00:14:52;7.70;47.20
67777;DHT22;54576;52.020;5.536;2023-04-20T00:17:18;7.70;47.20
67777;DHT22;54576;52.020;5.536;2023-04-20T00:19:44;7.60;47.40
67777;DHT22;54576;52.020;5.536;2023-04-20T00:22:10;7.60;47.40
67777;DHT22;54576;52.020;5.536;2023-04-20T00:24:36;7.50;47.50
67777;DHT22;54576;52.020;5.536;2023-04-20T00:27:02;7.50;47.70
67777;DHT22;54576;52.020;5.536;2023-04-20T00:29:27;7.50;47.90
67777;DHT22;54576;52.020;5.536;2023-04-20T00:31:53;7.40;47.80
67777;DHT22;54576;52.020;5.536;2023-04-20T00:34:19;7.40;47.90
67777;DHT22;54576;52.020;5.536;2023-04-20T00:36:44;7.40;48.10
67777;DHT22;54576;52.020;5.536;2023-04-20T00:39:10;7.30;48.00
67777;DHT22;54576;52.020;5.536;2023-04-20T00:41:35;7.30;48.00
67777;DHT22;54576;52.020;5.536;2023-04-20T00:44:01;7.20;48.20
67777;DHT22;54576;52.020;5.536;2023-04-20T00:46:27;7.20;48.30
67777;DHT22;54576;52.020;5.536;2023-04-20T00:48:53;7.20;48.40
67777;DHT22;54576;52.020;5.536;2023-04-20T00:51:20;7.10;48.60
67777;DHT22;54576;52.020;5.536;2023-04-20T00:53:46;7.10;48.50
67777;DHT22;54576;52.020;5.536;2023-04-20T00:56:15;7.10;48.50
67777;DHT22;54576;52.020;5.536;2023-04-20T00:58:44;7.10;48.80
67777;DHT22;54576;52.020;5.536;2023-04-20T01:01:11;7.10;48.80
67777;DHT22;54576;52.020;5.536;2023-04-20T01:03:38;7.10;49.10
67777;DHT22;54576;52.020;5.536;2023-04-20T01:06:04;7.10;49.20
67777;DHT22;54576;52.020;5.536;2023-04-20T01:08:30;7.10;49.30
67777;DHT22;54576;52.020;5.536;2023-04-20T01:10:56;7.10;49.40
67777;DHT22;54576;52.020;5.536;2023-04-20T01:13:22;7.10;49.40
67777;DHT22;54576;52.020;5.536;2023-04-20T01:15:48;7.10;49.50
67777;DHT22;54576;52.020;5.536;2023-04-20T01:18:13;7.10;49.50
67777;DHT22;54576;52.020;5.536;2023-04-20T01:20:39;7.10;49.90
67777;DHT22;54576;52.020;5.536;2023-04-20T01:23:05;7.00;50.00
67777;DHT22;54576;52.020;5.536;2023-04-20T01:25:31;7.00;49.80
67777;DHT22;54576;52.020;5.536;2023-04-20T01:27:56;7.00;50.60
67777;DHT22;54576;52.020;5.536;2023-04-20T01:30:22;6.90;50.60
67777;DHT22;54576;52.020;5.536;2023-04-20T01:32:47;6.90;50.40
67777;DHT22;54576;52.020;5.536;2023-04-20T01:35:13;6.80;51.20
67777;DHT22;54576;52.020;5.536;2023-04-20T01:37:40;6.90;51.00
67777;DHT22;54576;52.020;5.536;2023-04-20T01:40:11;6.80;51.40
67777;DHT22;54576;52.020;5.536;2023-04-20T01:42:37;6.80;50.70
67777;DHT22;54576;52.020;5.536;2023-04-20T01:45:06;6.80;51.10
67777;DHT22;54576;52.020;5.536;2023-04-20T01:47:33;6.80;51.40
67777;DHT22;54576;52.020;5.536;2023-04-20T01:49:59;6.70;51.90
67777;DHT22;54576;52.020;5.536;2023-04-20T01:52:28;6.80;52.00
67777;DHT22;54576;52.020;5.536;2023-04-20T01:54:53;6.80;52.30
67777;DHT22;54576;52.020;5.536;2023-04-20T01:57:19;6.80;53.10
67777;DHT22;54576;52.020;5.536;2023-04-20T01:59:44;6.80;53.40
67777;DHT22;54576;52.020;5.536;2023-04-20T02:02:10;6.80;53.00
67777;DHT22;54576;52.020;5.536;2023-04-20T02:04:35;6.80;53.80
67777;DHT22;54576;52.020;5.536;2023-04-20T02:07:04;6.80;53.40
67777;DHT22;54576;52.020;5.536;2023-04-20T02:09:29;6.90;53.20
67777;DHT22;54576;52.020;5.536;2023-04-20T02:11:55;6.90;53.80
67777;DHT22;54576;52.020;5.536;2023-04-20T02:14:21;6.90;53.00
67777;DHT22;54576;52.020;5.536;2023-04-20T02:16:46;6.90;53.90
67777;DHT22;54576;52.020;5.536;2023-04-20T02:19:12;6.90;54.20
67777;DHT22;54576;52.020;5.536;2023-04-20T02:21:40;6.90;54.30
67777;DHT22;54576;52.020;5.536;2023-04-20T02:24:06;6.90;54.50
67777;DHT22;54576;52.020;5.536;2023-04-20T02:26:32;6.90;54.60
67777;DHT22;54576;52.020;5.536;2023-04-20T02:28:57;6.90;54.80
67777;DHT22;54576;52.020;5.536;2023-04-20T02:31:23;6.90;54.00
67777;DHT22;54576;52.020;5.536;2023-04-20T02:33:48;6.90;54.90
67777;DHT22;54576;52.020;5.536;2023-04-20T02:36:14;6.90;54.50
67777;DHT22;54576;52.020;5.536;2023-04-20T02:38:40;6.90;55.70
67777;DHT22;54576;52.020;5.536;2023-04-20T02:41:05;6.90;55.70
67777;DHT22;54576;52.020;5.536;2023-04-20T02:43:31;6.90;55.20
67777;DHT22;54576;52.020;5.536;2023-04-20T02:45:58;7.00;56.60
67777;DHT22;54576;52.020;5.536;2023-04-20T02:48:23;7.00;56.00
67777;DHT22;54576;52.020;5.536;2023-04-20T02:50:49;7.10;54.30
67777;DHT22;54576;52.020;5.536;2023-04-20T02:53:15;7.10;55.70
67777;DHT22;54576;52.020;5.536;2023-04-20T02:55:40;7.20;56.40
67777;DHT22;54576;52.020;5.536;2023-04-20T02:58:06;7.20;55.40
67777;DHT22;54576;52.020;5.536;2023-04-20T03:00:31;7.30;55.80
67777;DHT22;54576;52.020;5.536;2023-04-20T03:02:57;7.30;55.00
67777;DHT22;54576;52.020;5.536;2023-04-20T03:05:23;7.40;56.20
67777;DHT22;54576;52.020;5.536;2023-04-20T03:07:48;7.40;56.10
67777;DHT22;54576;52.020;5.536;2023-04-20T03:10:14;7.40;56.40
67777;DHT22;54576;52.020;5.536;2023-04-20T03:12:39;7.40;54.60
67777;DHT22;54576;52.020;5.536;2023-04-20T03:15:05;7.50;55.50
67777;DHT22;54576;52.020;5.536;2023-04-20T03:17:31;7.50;54.90
67777;DHT22;54576;52.020;5.536;2023-04-20T03:19:57;7.50;54.20
67777;DHT22;54576;52.020;5.536;2023-04-20T03:22:22;7.60;55.40
67777;DHT22;54576;52.020;5.536;2023-04-20T03:24:48;7.60;55.30
67777;DHT22;54576;52.020;5.536;2023-04-20T03:27:13;7.60;57.20
67777;DHT22;54576;52.020;5.536;2023-04-20T03:29:45;7.60;57.60
67777;DHT22;54576;52.020;5.536;2023-04-20T03:32:13;7.70;57.00
67777;DHT22;54576;52.020;5.536;2023-04-20T03:34:38;7.70;57.00
67777;DHT22;54576;52.020;5.536;2023-04-20T03:37:04;7.70;56.70
67777;DHT22;54576;52.020;5.536;2023-04-20T03:39:30;7.70;57.20
67777;DHT22;54576;52.020;5.536;2023-04-20T03:41:55;7.80;56.20
67777;DHT22;54576;52.020;5.536;2023-04-20T03:44:24;7.80;57.10
67777;DHT22;54576;52.020;5.536;2023-04-20T03:46:50;7.80;56.80
67777;DHT22;54576;52.020;5.536;2023-04-20T03:49:15;7.80;57.50
67777;DHT22;54576;52.020;5.536;2023-04-20T03:51:41;7.90;56.70
67777;DHT22;54576;52.020;5.536;2023-04-20T03:54:06;7.90;54.60
67777;DHT22;54576;52.020;5.536;2023-04-20T03:56:32;7.90;56.40
67777;DHT22;54576;52.020;5.536;2023-04-20T03:58:57;8.00;56.60
67777;DHT22;54576;52.020;5.536;2023-04-20T04:01:23;8.00;54.70
67777;DHT22;54576;52.020;5.536;2023-04-20T04:03:48;8.00;55.10
67777;DHT22;54576;52.020;5.536;2023-04-20T04:06:14;8.00;57.00
67777;DHT22;54576;52.020;5.536;2023-04-20T04:08:40;8.10;56.60
67777;DHT22;54576;52.020;5.536;2023-04-20T04:11:06;8.10;56.20
67777;DHT22;54576;52.020;5.536;2023-04-20T04:13:31;8.10;56.90
67777;DHT22;54576;52.020;5.536;2023-04-20T04:15:57;8.20;55.80
67777;DHT22;54576;52.020;5.536;2023-04-20T04:18:26;8.20;54.40
67777;DHT22;54576;52.020;5.536;2023-04-20T04:20:56;8.20;54.90
67777;DHT22;54576;52.020;5.536;2023-04-20T04:23:22;8.20;56.20
67777;DHT22;54576;52.020;5.536;2023-04-20T04:25:47;8.30;56.90
67777;DHT22;54576;52.020;5.536;2023-04-20T04:28:13;8.30;56.30
67777;DHT22;54576;52.020;5.536;2023-04-20T04:30:39;8.30;56.60
67777;DHT22;54576;52.020;5.536;2023-04-20T04:33:05;8.30;57.00
67777;DHT22;54576;52.020;5.536;2023-04-20T04:35:31;8.30;57.10
67777;DHT22;54576;52.020;5.536;2023-04-20T04:37:58;8.30;56.90
67777;DHT22;54576;52.020;5.536;2023-04-20T04:40:24;8.30;56.00
67777;DHT22;54576;52.020;5.536;2023-04-20T04:42:50;8.30;56.70
67777;DHT22;54576;52.020;5.536;2023-04-20T04:45:15;8.30;57.40
67777;DHT22;54576;52.020;5.536;2023-04-20T04:47:42;8.30;56.70
67777;DHT22;54576;52.020;5.536;2023-04-20T04:50:09;8.40;57.10
67777;DHT22;54576;52.020;5.536;2023-04-20T04:52:36;8.30;58.10
67777;DHT22;54576;52.020;5.536;2023-04-20T04:55:02;8.30;58.10
67777;DHT22;54576;52.020;5.536;2023-04-20T04:57:28;8.30;59.60
67777;DHT22;54576;52.020;5.536;2023-04-20T04:59:54;8.30;58.30
67777;DHT22;54576;52.020;5.536;2023-04-20T05:02:19;8.30;57.70
67777;DHT22;54576;52.020;5.536;2023-04-20T05:04:45;8.30;58.30
67777;DHT22;54576;52.020;5.536;2023-04-20T05:07:11;8.30;60.60
67777;DHT22;54576;52.020;5.536;2023-04-20T05:09:38;8.30;58.70
67777;DHT22;54576;52.020;5.536;2023-04-20T05:12:04;8.30;59.10
67777;DHT22;54576;52.020;5.536;2023-04-20T05:14:31;8.30;59.80
67777;DHT22;54576;52.020;5.536;2023-04-20T05:16:58;8.30;58.00
67777;DHT22;54576;52.020;5.536;2023-04-20T05:19:24;8.30;59.60
67777;DHT22;54576;52.020;5.536;2023-04-20T05:21:49;8.40;57.50
67777;DHT22;54576;52.020;5.536;2023-04-20T05:24:15;8.40;59.70
67777;DHT22;54576;52.020;5.536;2023-04-20T05:26:42;8.40;59.30
67777;DHT22;54576;52.020;5.536;2023-04-20T05:29:07;8.40;59.90
67777;DHT22;54576;52.020;5.536;2023-04-20T05:31:33;8.40;59.40
67777;DHT22;54576;52.020;5.536;2023-04-20T05:33:58;8.40;59.30
67777;DHT22;54576;52.020;5.536;2023-04-20T05:36:24;8.40;58.60
67777;DHT22;54576;52.020;5.536;2023-04-20T05:38:50;8.40;60.90
67777;DHT22;54576;52.020;5.536;2023-04-20T05:41:16;8.50;59.60
67777;DHT22;54576;52.020;5.536;2023-04-20T05:43:41;8.50;60.50
67777;DHT22;54576;52.020;5.536;2023-04-20T05:46:07;8.50;61.80
67777;DHT22;54576;52.020;5.536;2023-04-20T05:48:41;8.50;58.70
67777;DHT22;54576;52.020;5.536;2023-04-20T05:51:07;8.50;60.20
67777;DHT22;54576;52.020;5.536;2023-04-20T05:53:32;8.60;58.20
67777;DHT22;54576;52.020;5.536;2023-04-20T05:55:58;8.60;59.80
67777;DHT22;54576;52.020;5.536;2023-04-20T05:58:23;8.60;59.30
67777;DHT22;54576;52.020;5.536;2023-04-20T06:00:49;8.70;59.80
67777;DHT22;54576;52.020;5.536;2023-04-20T06:03:15;8.70;60.60
67777;DHT22;54576;52.020;5.536;2023-04-20T06:05:40;8.70;58.20
67777;DHT22;54576;52.020;5.536;2023-04-20T06:08:09;8.80;61.90
67777;DHT22;54576;52.020;5.536;2023-04-20T06:10:35;8.90;59.30
67777;DHT22;54576;52.020;5.536;2023-04-20T06:13:00;9.10;59.90
67777;DHT22;54576;52.020;5.536;2023-04-20T06:15:26;9.30;59.20
67777;DHT22;54576;52.020;5.536;2023-04-20T06:17:52;9.40;58.80
67777;DHT22;54576;52.020;5.536;2023-04-20T06:20:17;9.50;58.80
67777;DHT22;54576;52.020;5.536;2023-04-20T06:22:44;10.00;58.10
67777;DHT22;54576;52.020;5.536;2023-04-20T06:25:16;10.40;56.50
67777;DHT22;54576;52.020;5.536;2023-04-20T06:27:42;10.30;57.10
67777;DHT22;54576;52.020;5.536;2023-04-20T06:30:08;10.20;56.90
67777;DHT22;54576;52.020;5.536;2023-04-20T06:32:34;10.20;56.30
67777;DHT22;54576;52.020;5.536;2023-04-20T06:34:59;10.30;56.30
67777;DHT22;54576;52.020;5.536;2023-04-20T06:37:25;10.30;57.20
67777;DHT22;54576;52.020;5.536;2023-04-20T06:39:53;10.30;56.70
67777;DHT22;54576;52.020;5.536;2023-04-20T06:42:22;10.30;56.70
67777;DHT22;54576;52.020;5.536;2023-04-20T06:44:47;10.00;57.20
67777;DHT22;54576;52.020;5.536;2023-04-20T06:47:13;10.00;56.90
67777;DHT22;54576;52.020;5.536;2023-04-20T06:49:38;9.90;57.20
67777;DHT22;54576;52.020;5.536;2023-04-20T06:52:05;10.00;56.80
67777;DHT22;54576;52.020;5.536;2023-04-20T06:54:31;9.90;57.30
67777;DHT22;54576;52.020;5.536;2023-04-20T06:56:57;9.80;57.10
67777;DHT22;54576;52.020;5.536;2023-04-20T06:59:22;9.70;58.10
67777;DHT22;54576;52.020;5.536;2023-04-20T07:01:48;9.70;57.50
67777;DHT22;54576;52.020;5.536;2023-04-20T07:04:13;9.60;57.50
67777;DHT22;54576;52.020;5.536;2023-04-20T07:06:40;9.60;57.90
67777;DHT22;54576;52.020;5.536;2023-04-20T07:09:05;9.50;58.00
67777;DHT22;54576;52.020;5.536;2023-04-20T07:11:32;9.50;58.10
67777;DHT22;54576;52.020;5.536;2023-04-20T07:13:58;9.50;57.70
67777;DHT22;54576;52.020;5.536;2023-04-20T07:16:23;9.60;58.00
67777;DHT22;54576;52.020;5.536;2023-04-20T07:18:49;9.60;58.60
67777;DHT22;54576;52.020;5.536;2023-04-20T07:21:15;9.70;58.00
67777;DHT22;54576;52.020;5.536;2023-04-20T07:23:40;9.50;58.00
67777;DHT22;54576;52.020;5.536;2023-04-20T07:26:07;9.50;58.10
67777;DHT22;54576;52.020;5.536;2023-04-20T07:28:32;9.40;57.90
67777;DHT22;54576;52.020;5.536;2023-04-20T07:30:58;9.40;58.50
67777;DHT22;54576;52.020;5.536;2023-04-20T07:33:24;9.30;58.50
67777;DHT22;54576;52.020;5.536;2023-04-20T07:35:50;9.30;58.70
67777;DHT22;54576;52.020;5.536;2023-04-20T07:38:16;9.20;60.00
67777;DHT22;54576;52.020;5.536;2023-04-20T07:40:41;9.20;59.20
67777;DHT22;54576;52.020;5.536;2023-04-20T07:43:10;9.20;59.30
67777;DHT22;54576;52.020;5.536;2023-04-20T07:45:38;9.20;60.30
67777;DHT22;54576;52.020;5.536;2023-04-20T07:48:04;9.10;58.90
67777;DHT22;54576;52.020;5.536;2023-04-20T07:50:30;9.10;59.00
67777;DHT22;54576;52.020;5.536;2023-04-20T07:52:55;9.20;59.20
67777;DHT22;54576;52.020;5.536;2023-04-20T07:55:21;9.30;59.70
67777;DHT22;54576;52.020;5.536;2023-04-20T07:57:46;9.20;60.00
67777;DHT22;54576;52.020;5.536;2023-04-20T08:00:12;9.30;59.70
67777;DHT22;54576;52.020;5.536;2023-04-20T08:02:39;9.50;59.90
67777;DHT22;54576;52.020;5.536;2023-04-20T08:05:05;9.40;59.30
67777;DHT22;54576;52.020;5.536;2023-04-20T08:07:30;9.40;59.00
67777;DHT22;54576;52.020;5.536;2023-04-20T08:09:57;9.40;60.00
67777;DHT22;54576;52.020;5.536;2023-04-20T08:12:23;9.60;59.20
67777;DHT22;54576;52.020;5.536;2023-04-20T08:14:48;9.80;58.70
67777;DHT22;54576;52.020;5.536;2023-04-20T08:17:14;10.20;59.40
67777;DHT22;54576;52.020;5.536;2023-04-20T08:19:39;10.50;58.30
67777;DHT22;54576;52.020;5.536;2023-04-20T08:22:05;10.60;58.20
67777;DHT22;54576;52.020;5.536;2023-04-20T08:24:31;10.70;57.80
67777;DHT22;54576;52.020;5.536;2023-04-20T08:27:00;10.70;57.90
67777;DHT22;54576;52.020;5.536;2023-04-20T08:29:26;10.80;58.30
67777;DHT22;54576;52.020;5.536;2023-04-20T08:31:51;10.70;58.50
67777;DHT22;54576;52.020;5.536;2023-04-20T08:34:17;10.50;58.30
67777;DHT22;54576;52.020;5.536;2023-04-20T08:36:42;10.30;59.60
67777;DHT22;54576;52.020;5.536;2023-04-20T08:39:13;10.10;59.50
67777;DHT22;54576;52.020;5.536;2023-04-20T08:41:39;10.10;59.30
67777;DHT22;54576;52.020;5.536;2023-04-20T08:44:06;10.00;59.50
67777;DHT22;54576;52.020;5.536;2023-04-20T08:46:32;9.90;59.60
67777;DHT22;54576;52.020;5.536;2023-04-20T08:48:59;9.80;59.50
67777;DHT22;54576;52.020;5.536;2023-04-20T08:51:26;9.80;59.90
67777;DHT22;54576;52.020;5.536;2023-04-20T08:53:54;9.80;60.30
67777;DHT22;54576;52.020;5.536;2023-04-20T08:56:34;9.70;61.40
67777;DHT22;54576;52.020;5.536;2023-04-20T08:59:01;9.80;61.30
67777;DHT22;54576;52.020;5.536;2023-04-20T09:01:28;9.80;60.40
67777;DHT22;54576;52.020;5.536;2023-04-20T09:03:54;9.90;60.40
67777;DHT22;54576;52.020;5.536;2023-04-20T09:06:19;9.90;60.00
67777;DHT22;54576;52.020;5.536;2023-04-20T09:08:46;9.90;60.40
67777;DHT22;54576;52.020;5.536;2023-04-20T09:11:25;9.90;60.40
67777;DHT22;54576;52.020;5.536;2023-04-20T09:14:10;9.80;61.00
67777;DHT22;54576;52.020;5.536;2023-04-20T09:16:38;9.80;62.00
67777;DHT22;54576;52.020;5.536;2023-04-20T09:19:12;9.70;61.00
67777;DHT22;54576;52.020;5.536;2023-04-20T09:21:47;9.60;61.00
67777;DHT22;54576;52.020;5.536;2023-04-20T09:24:14;9.60;61.40
67777;DHT22;54576;52.020;5.536;2023-04-20T09:26:39;9.60;61.00
67777;DHT22;54576;52.020;5.536;2023-04-20T09:29:17;9.70;60.90
67777;DHT22;54576;52.020;5.536;2023-04-20T09:31:43;9.70;62.90
67777;DHT22;54576;52.020;5.536;2023-04-20T09:34:09;9.70;61.80
67777;DHT22;54576;52.020;5.536;2023-04-20T09:41:34;9.80;60.80
67777;DHT22;54576;52.020;5.536;2023-04-20T09:44:00;9.80;61.00
67777;DHT22;54576;52.020;5.536;2023-04-20T09:46:30;9.80;61.30
67777;DHT22;54576;52.020;5.536;2023-04-20T09:48:57;9.80;61.60
67777;DHT22;54576;52.020;5.536;2023-04-20T09:51:28;9.90;61.00
67777;DHT22;54576;52.020;5.536;2023-04-20T09:53:59;10.00;60.90
67777;DHT22;54576;52.020;5.536;2023-04-20T09:56:26;10.00;60.60
67777;DHT22;54576;52.020;5.536;2023-04-20T09:58:53;10.10;60.40
67777;DHT22;54576;52.020;5.536;2023-04-20T10:01:19;10.10;59.90
67777;DHT22;54576;52.020;5.536;2023-04-20T10:03:45;10.30;59.90
67777;DHT22;54576;52.020;5.536;2023-04-20T10:06:35;10.40;59.70
67777;DHT22;54576;52.020;5.536;2023-04-20T10:09:03;10.40;59.80
67777;DHT22;54576;52.020;5.536;2023-04-20T10:11:34;10.40;59.70
67777;DHT22;54576;52.020;5.536;2023-04-20T10:14:22;10.50;59.70
67777;DHT22;54576;52.020;5.536;2023-04-20T10:17:02;10.50;59.60
67777;DHT22;54576;52.020;5.536;2023-04-20T10:19:44;10.60;59.80
67777;DHT22;54576;52.020;5.536;2023-04-20T10:22:25;10.80;59.70
67777;DHT22;54576;52.020;5.536;2023-04-20T10:24:53;10.80;60.00
67777;DHT22;54576;52.020;5.536;2023-04-20T10:27:20;10.80;58.80
67777;DHT22;54576;52.020;5.536;2023-04-20T10:29:46;10.80;58.90
67777;DHT22;54576;52.020;5.536;2023-04-20T10:32:25;10.90;59.20
67777;DHT22;54576;52.020;5.536;2023-04-20T10:35:05;11.10;60.00
67777;DHT22;54576;52.020;5.536;2023-04-20T10:37:31;11.10;58.20
67777;DHT22;54576;52.020;5.536;2023-04-20T10:39:56;11.20;58.30
67777;DHT22;54576;52.020;5.536;2023-04-20T10:42:22;11.20;58.40
67777;DHT22;54576;52.020;5.536;2023-04-20T10:47:14;11.30;57.90
67777;DHT22;54576;52.020;5.536;2023-04-20T10:49:39;11.30;57.90
67777;DHT22;54576;52.020;5.536;2023-04-20T10:52:05;11.40;57.80
67777;DHT22;54576;52.020;5.536;2023-04-20T10:54:38;11.40;57.20
67777;DHT22;54576;52.020;5.536;2023-04-20T10:57:05;11.40;57.30
67777;DHT22;54576;52.020;5.536;2023-04-20T10:59:31;11.30;57.50
67777;DHT22;54576;52.020;5.536;2023-04-20T11:01:58;11.50;57.40
67777;DHT22;54576;52.020;5.536;2023-04-20T11:04:29;11.70;56.90
67777;DHT22;54576;52.020;5.536;2023-04-20T11:07:04;11.80;56.40
67777;DHT22;54576;52.020;5.536;2023-04-20T11:09:31;11.60;56.50
67777;DHT22;54576;52.020;5.536;2023-04-20T11:12:06;11.60;57.10
67777;DHT22;54576;52.020;5.536;2023-04-20T11:14:34;11.70;57.10
67777;DHT22;54576;52.020;5.536;2023-04-20T11:17:00;11.70;56.40
67777;DHT22;54576;52.020;5.536;2023-04-20T11:21:56;11.50;56.00
67777;DHT22;54576;52.020;5.536;2023-04-20T11:24:27;11.40;56.50
67777;DHT22;54576;52.020;5.536;2023-04-20T11:26:54;11.40;56.40
67777;DHT22;54576;52.020;5.536;2023-04-20T11:29:30;11.40;56.60
67777;DHT22;54576;52.020;5.536;2023-04-20T11:31:57;11.30;56.60
67777;DHT22;54576;52.020;5.536;2023-04-20T11:34:23;11.30;56.90
67777;DHT22;54576;52.020;5.536;2023-04-20T11:36:49;11.50;57.20
67777;DHT22;54576;52.020;5.536;2023-04-20T11:39:25;11.60;56.60
67777;DHT22;54576;52.020;5.536;2023-04-20T11:41:52;11.70;56.40
67777;DHT22;54576;52.020;5.536;2023-04-20T11:44:19;11.70;56.10
67777;DHT22;54576;52.020;5.536;2023-04-20T11:46:46;11.60;56.30
67777;DHT22;54576;52.020;5.536;2023-04-20T11:49:14;11.60;56.30
67777;DHT22;54576;52.020;5.536;2023-04-20T11:51:40;11.50;56.30
67777;DHT22;54576;52.020;5.536;2023-04-20T11:54:06;11.40;56.60
67777;DHT22;54576;52.020;5.536;2023-04-20T11:56:31;11.40;56.60
67777;DHT22;54576;52.020;5.536;2023-04-20T11:58:57;11.20;56.90
67777;DHT22;54576;52.020;5.536;2023-04-20T12:01:23;11.30;57.10
67777;DHT22;54576;52.020;5.536;2023-04-20T12:03:48;11.40;57.00
67777;DHT22;54576;52.020;5.536;2023-04-20T12:06:14;11.40;57.00
67777;DHT22;54576;52.020;5.536;2023-04-20T12:08:40;11.30;56.70
67777;DHT22;54576;52.020;5.536;2023-04-20T12:11:08;11.30;56.90
67777;DHT22;54576;52.020;5.536;2023-04-20T12:13:34;11.10;57.10
67777;DHT22;54576;52.020;5.536;2023-04-20T12:15:59;11.10;57.10
67777;DHT22;54576;52.020;5.536;2023-04-20T12:18:25;11.10;57.30
67777;DHT22;54576;52.020;5.536;2023-04-20T12:20:50;11.10;57.30
67777;DHT22;54576;52.020;5.536;2023-04-20T12:23:16;11.10;57.30
67777;DHT22;54576;52.020;5.536;2023-04-20T12:25:41;11.00;57.30
67777;DHT22;54576;52.020;5.536;2023-04-20T12:28:07;11.00;57.30
67777;DHT22;54576;52.020;5.536;2023-04-20T12:30:33;11.10;57.30
67777;DHT22;54576;52.020;5.536;2023-04-20T12:33:00;11.20;57.30
67777;DHT22;54576;52.020;5.536;2023-04-20T12:35:26;11.20;57.30
67777;DHT22;54576;52.020;5.536;2023-04-20T12:37:51;11.20;57.20
67777;DHT22;54576;52.020;5.536;2023-04-20T12:40:17;11.20;57.20
67777;DHT22;54576;52.020;5.536;2023-04-20T12:42:43;11.20;57.10
67777;DHT22;54576;52.020;5.536;2023-04-20T12:45:09;11.20;57.10
67777;DHT22;54576;52.020;5.536;2023-04-20T12:47:35;11.40;57.20
67777;DHT22;54576;52.020;5.536;2023-04-20T12:50:01;11.60;57.10
67777;DHT22;54576;52.020;5.536;2023-04-20T12:52:27;11.70;56.60
67777;DHT22;54576;52.020;5.536;2023-04-20T12:54:53;11.80;56.60
67777;DHT22;54576;52.020;5.536;2023-04-20T12:57:21;11.80;56.40
67777;DHT22;54576;52.020;5.536;2023-04-20T12:59:47;11.80;56.40
67777;DHT22;54576;52.020;5.536;2023-04-20T13:02:16;11.70;56.30
67777;DHT22;54576;52.020;5.536;2023-04-20T13:04:42;11.80;56.50
67777;DHT22;54576;52.020;5.536;2023-04-20T13:07:11;11.80;56.20
67777;DHT22;54576;52.020;5.536;2023-04-20T13:09:37;11.90;56.50
67777;DHT22;54576;52.020;5.536;2023-04-20T13:12:03;11.90;56.20
67777;DHT22;54576;52.020;5.536;2023-04-20T13:14:28;11.90;55.90
67777;DHT22;54576;52.020;5.536;2023-04-20T13:16:54;11.80;56.00
67777;DHT22;54576;52.020;5.536;2023-04-20T13:19:20;11.90;56.30
67777;DHT22;54576;52.020;5.536;2023-04-20T13:21:46;11.90;56.30
67777;DHT22;54576;52.020;5.536;2023-04-20T13:24:11;11.90;56.00
67777;DHT22;54576;52.020;5.536;2023-04-20T13:26:37;11.80;56.00
67777;DHT22;54576;52.020;5.536;2023-04-20T13:29:02;11.80;56.20
67777;DHT22;54576;52.020;5.536;2023-04-20T13:31:29;11.90;55.80
67777;DHT22;54576;52.020;5.536;2023-04-20T13:33:55;11.90;55.90
67777;DHT22;54576;52.020;5.536;2023-04-20T13:36:25;11.90;55.90
67777;DHT22;54576;52.020;5.536;2023-04-20T13:38:52;11.90;55.70
67777;DHT22;54576;52.020;5.536;2023-04-20T13:41:18;11.90;55.50
67777;DHT22;54576;52.020;5.536;2023-04-20T13:43:43;11.80;55.80
67777;DHT22;54576;52.020;5.536;2023-04-20T13:46:10;11.80;55.50
67777;DHT22;54576;52.020;5.536;2023-04-20T13:48:35;11.80;55.80
67777;DHT22;54576;52.020;5.536;2023-04-20T13:51:01;11.90;55.90
67777;DHT22;54576;52.020;5.536;2023-04-20T13:53:27;12.00;56.10
67777;DHT22;54576;52.020;5.536;2023-04-20T13:55:52;12.00;56.10
67777;DHT22;54576;52.020;5.536;2023-04-20T13:58:18;12.10;56.20
67777;DHT22;54576;52.020;5.536;2023-04-20T14:00:43;12.20;56.20
67777;DHT22;54576;52.020;5.536;2023-04-20T14:03:09;12.10;55.90
67777;DHT22;54576;52.020;5.536;2023-04-20T14:05:35;12.10;55.90
67777;DHT22;54576;52.020;5.536;2023-04-20T14:08:03;12.10;56.10
67777;DHT22;54576;52.020;5.536;2023-04-20T14:10:29;12.20;56.20
67777;DHT22;54576;52.020;5.536;2023-04-20T14:12:54;12.20;55.90
67777;DHT22;54576;52.020;5.536;2023-04-20T14:15:20;12.20;55.80
67777;DHT22;54576;52.020;5.536;2023-04-20T14:17:46;12.20;55.90
67777;DHT22;54576;52.020;5.536;2023-04-20T14:20:11;12.10;56.00
67777;DHT22;54576;52.020;5.536;2023-04-20T14:22:37;12.10;56.30
67777;DHT22;54576;52.020;5.536;2023-04-20T14:25:03;12.20;55.70
67777;DHT22;54576;52.020;5.536;2023-04-20T14:27:29;12.10;55.70
67777;DHT22;54576;52.020;5.536;2023-04-20T14:29:55;12.20;55.90
67777;DHT22;54576;52.020;5.536;2023-04-20T14:32:21;12.30;55.60
67777;DHT22;54576;52.020;5.536;2023-04-20T14:34:47;12.40;55.40
67777;DHT22;54576;52.020;5.536;2023-04-20T14:37:13;12.50;55.50
67777;DHT22;54576;52.020;5.536;2023-04-20T14:39:38;12.70;55.00
67777;DHT22;54576;52.020;5.536;2023-04-20T14:42:04;12.70;55.10
67777;DHT22;54576;52.020;5.536;2023-04-20T14:44:29;12.60;54.70
67777;DHT22;54576;52.020;5.536;2023-04-20T14:46:55;12.50;55.20
67777;DHT22;54576;52.020;5.536;2023-04-20T14:49:24;12.40;55.20
67777;DHT22;54576;52.020;5.536;2023-04-20T14:51:49;12.20;55.10
67777;DHT22;54576;52.020;5.536;2023-04-20T14:54:15;12.20;55.60
67777;DHT22;54576;52.020;5.536;2023-04-20T14:56:40;12.20;55.30
67777;DHT22;54576;52.020;5.536;2023-04-20T14:59:06;12.20;55.50
67777;DHT22;54576;52.020;5.536;2023-04-20T15:01:34;12.40;55.30
67777;DHT22;54576;52.020;5.536;2023-04-20T15:04:00;12.60;55.50
67777;DHT22;54576;52.020;5.536;2023-04-20T15:06:26;12.80;56.10
67777;DHT22;54576;52.020;5.536;2023-04-20T15:08:52;12.80;54.50
67777;DHT22;54576;52.020;5.536;2023-04-20T15:11:18;12.70;54.10
67777;DHT22;54576;52.020;5.536;2023-04-20T15:13:44;12.70;54.20
67777;DHT22;54576;52.020;5.536;2023-04-20T15:16:11;12.50;54.50
67777;DHT22;54576;52.020;5.536;2023-04-20T15:18:37;12.40;54.50
67777;DHT22;54576;52.020;5.536;2023-04-20T15:21:02;12.40;54.80
67777;DHT22;54576;52.020;5.536;2023-04-20T15:23:28;12.40;55.20
67777;DHT22;54576;52.020;5.536;2023-04-20T15:25:53;12.40;55.20
67777;DHT22;54576;52.020;5.536;2023-04-20T15:28:19;12.40;54.70
67777;DHT22;54576;52.020;5.536;2023-04-20T15:30:44;12.40;54.80
67777;DHT22;54576;52.020;5.536;2023-04-20T15:33:11;12.50;56.20
67777;DHT22;54576;52.020;5.536;2023-04-20T15:35:36;12.60;55.40
67777;DHT22;54576;52.020;5.536;2023-04-20T15:38:02;12.90;55.10
67777;DHT22;54576;52.020;5.536;2023-04-20T15:40:28;13.10;54.90
67777;DHT22;54576;52.020;5.536;2023-04-20T15:42:53;13.10;54.70
67777;DHT22;54576;52.020;5.536;2023-04-20T15:45:20;12.90;54.90